To NAV CANADA Home Page Login to a new session Search on AWWS site Feedback and Comments Disclaimer Vers la page française équivalente Tips FAQ What's new on the site To the Forecasts and Observations / NOTAM section To "File a Flight Plan" website Publications and other links Update of the User's profile FIC Telephone Numbers My Weather Data Folder Route Weather Data Regional Weather Data Local Weather Data To the Forecasts and Observations / NOTAM section
Request Generated 06/26/2017 at 22:23:28 UTC . Weather information available at that time is displayed.

METAR/TAF

RANKIN INLET/NU    

METAR CYRT 262200Z 16007KT 15SM FEW110 SCT270 09/03 A2995 RMK AC2CI2
SLP145=
METAR CYRT 262100Z 16007KT 15SM FEW028 SCT110 BKN270 10/04 A2994 RMK
SC1AC2CI2 SLP143=
METAR CYRT 262000Z 14008KT 15SM FEW028 FEW130 BKN270 10/03 A2993 RMK
CF1AC1CI4 CU ASOCTD SLP137=

TAF CYRT 261738Z 2618/2706 15008KT P6SM BKN200
BECMG 2700/2702 VRB03KT
RMK NXT FCST BY 270000Z=
Your time UTC time
Weather data provided by Environment Canada and NAV CANADA